Time;durP1;ratioP1;P1;durP2;ratioP2;P2;SDS_P1;SDS_P2;PMS_P1;PMS_P2;Temp;Humidity;BMP_temperature;BMP_pressure;BME280_temperature;BME280_humidity;BME280_pressure;Samples;Min_cycle;Max_cycle;Signal;HPM_P1;HPM_P2
2022/03/19 00:01:41;;;;;;;13.85;3.58;;;5.40;99.90;;;;;;5053054;28;20511;-72
2022/03/19 00:04:07;;;;;;;14.73;4.13;;;5.30;99.90;;;;;;5050778;28;20044;-71
2022/03/19 00:06:39;;;;;;;17.20;3.95;;;5.20;99.90;;;;;;5035293;28;20028;-72
2022/03/19 00:09:09;;;;;;;14.77;3.65;;;5.20;99.90;;;;;;5050969;28;20040;-73
2022/03/19 00:11:35;;;;;;;12.32;3.45;;;5.20;99.90;;;;;;5052576;28;20034;-72
2022/03/19 00:14:01;;;;;;;16.70;4.57;;;5.00;99.90;;;;;;5031036;28;20092;-73
2022/03/19 00:16:26;;;;;;;12.93;3.40;;;5.00;99.90;;;;;;5052005;28;20101;-71
2022/03/19 00:18:52;;;;;;;16.00;3.60;;;5.00;99.90;;;;;;5053365;28;20200;-72
2022/03/19 00:21:18;;;;;;;18.75;4.10;;;4.90;99.90;;;;;;5054272;28;20524;-72
2022/03/19 00:23:45;;;;;;;16.52;4.07;;;4.90;99.90;;;;;;5046002;28;20141;-72
2022/03/19 00:26:11;;;;;;;14.88;3.50;;;4.80;99.90;;;;;;5052335;28;20036;-71
2022/03/19 00:28:37;;;;;;;15.55;3.63;;;4.80;99.90;;;;;;5068152;28;20690;-72
2022/03/19 00:31:03;;;;;;;18.80;4.32;;;4.70;99.90;;;;;;5055571;28;20049;-72
2022/03/19 00:33:29;;;;;;;17.35;4.20;;;4.60;99.90;;;;;;5052622;28;20404;-73
2022/03/19 00:35:55;;;;;;;13.60;3.63;;;4.60;99.90;;;;;;5054133;28;20047;-71
2022/03/19 00:38:20;;;;;;;17.25;3.88;;;4.50;99.90;;;;;;5071509;28;20047;-70
2022/03/19 00:40:47;;;;;;;17.85;3.63;;;4.50;99.90;;;;;;5069502;28;20597;-72
2022/03/19 00:43:13;;;;;;;19.23;4.25;;;4.50;99.90;;;;;;5053401;28;20166;-72
2022/03/19 00:45:39;;;;;;;23.50;5.07;;;4.50;99.90;;;;;;5069041;28;20527;-72
2022/03/19 00:48:05;;;;;;;19.55;4.05;;;4.50;99.90;;;;;;5053345;28;20510;-72
2022/03/19 00:50:31;;;;;;;22.80;4.95;;;4.50;99.90;;;;;;5050002;28;20060;-72
2022/03/19 00:52:56;;;;;;;20.95;3.92;;;4.50;99.90;;;;;;5068749;28;20061;-70
2022/03/19 00:55:22;;;;;;;18.50;3.90;;;4.50;99.90;;;;;;5039936;28;20044;-70
2022/03/19 00:57:48;;;;;;;20.65;3.85;;;4.60;99.90;;;;;;5044603;28;20451;-71
2022/03/19 01:00:18;;;;;;;17.98;4.18;;;4.60;99.90;;;;;;5026302;28;20047;-73
2022/03/19 01:02:44;;;;;;;22.08;4.80;;;4.60;99.90;;;;;;5051037;28;20423;-72
2022/03/19 01:05:12;;;;;;;20.45;4.75;;;4.60;99.90;;;;;;5048223;28;20036;-72
2022/03/19 01:07:43;;;;;;;19.10;4.05;;;4.60;99.90;;;;;;5053223;28;20070;-71
2022/03/19 01:10:10;;;;;;;17.88;4.47;;;4.60;99.90;;;;;;5067979;28;20915;-72
2022/03/19 01:12:35;;;;;;;20.17;5.00;;;4.50;99.90;;;;;;5052834;28;20513;-72
2022/03/19 01:15:01;;;;;;;19.05;4.00;;;4.50;99.90;;;;;;5071747;28;20032;-72
2022/03/19 01:17:27;;;;;;;17.77;4.13;;;4.60;99.90;;;;;;5050110;28;20036;-73
2022/03/19 01:19:53;;;;;;;17.23;4.45;;;4.60;99.90;;;;;;5053899;28;20089;-72
2022/03/19 01:22:19;;;;;;;18.95;4.47;;;4.50;99.90;;;;;;5058322;28;20048;-73
2022/03/19 01:24:45;;;;;;;16.92;4.63;;;4.50;99.90;;;;;;5018729;28;20032;-72
2022/03/19 01:27:11;;;;;;;21.00;4.70;;;4.50;99.90;;;;;;5052178;28;20041;-69
2022/03/19 01:29:37;;;;;;;25.48;4.97;;;4.50;99.90;;;;;;5071186;28;20094;-72
2022/03/19 01:32:03;;;;;;;15.00;5.15;;;4.50;99.90;;;;;;5054866;28;20064;-72
2022/03/19 01:34:29;;;;;;;18.42;4.95;;;4.50;99.90;;;;;;5050855;28;20036;-72
2022/03/19 01:36:55;;;;;;;19.55;4.57;;;4.50;99.90;;;;;;5036925;28;20485;-72
2022/03/19 01:39:21;;;;;;;17.33;4.10;;;4.50;99.90;;;;;;5023683;28;20097;-72
2022/03/19 01:41:46;;;;;;;22.40;4.82;;;4.40;99.90;;;;;;5053637;28;20039;-70
2022/03/19 01:44:20;;;;;;;14.75;4.20;;;4.40;99.90;;;;;;5045158;28;20488;-72
2022/03/19 01:46:53;;;;;;;20.95;4.57;;;4.40;99.90;;;;;;5048834;28;20210;-73
2022/03/19 01:49:18;;;;;;;20.80;4.88;;;4.40;99.90;;;;;;5070187;28;20043;-72
2022/03/19 01:51:44;;;;;;;19.17;4.88;;;4.40;99.90;;;;;;5049728;28;20428;-73
2022/03/19 01:54:10;;;;;;;16.88;4.50;;;4.30;99.90;;;;;;5050568;28;21822;-70
2022/03/19 01:56:37;;;;;;;20.48;4.78;;;4.30;99.90;;;;;;5038779;28;20048;-70
2022/03/19 01:59:04;;;;;;;19.75;4.68;;;4.30;99.90;;;;;;5032459;28;20040;-71
2022/03/19 02:01:30;;;;;;;18.33;4.90;;;4.30;99.90;;;;;;5055852;28;20042;-72
2022/03/19 02:03:56;;;;;;;16.58;4.45;;;4.20;99.90;;;;;;5070096;28;21794;-72
2022/03/19 02:06:26;;;;;;;15.32;4.38;;;4.20;99.90;;;;;;5051037;28;20068;-71
2022/03/19 02:08:53;;;;;;;24.17;5.05;;;4.20;99.90;;;;;;5053272;28;20064;-70
2022/03/19 02:11:18;;;;;;;18.67;4.97;;;4.10;99.90;;;;;;5038028;28;20044;-71
2022/03/19 02:13:44;;;;;;;23.63;5.22;;;4.00;99.90;;;;;;5021978;28;20562;-71
2022/03/19 02:16:10;;;;;;;24.42;4.47;;;4.10;99.90;;;;;;5052214;28;20128;-71
2022/03/19 02:18:36;;;;;;;16.98;4.60;;;4.10;99.90;;;;;;5022851;28;20058;-71
2022/03/19 02:21:02;;;;;;;15.55;4.40;;;4.10;99.90;;;;;;5068934;28;20032;-71
2022/03/19 02:26:12;;;;;;;20.13;4.43;;;4.00;99.90;;;;;;5065935;28;20045;-71
2022/03/19 02:28:38;;;;;;;17.45;4.22;;;4.00;99.90;;;;;;5054825;28;20528;-71
2022/03/19 02:31:04;;;;;;;17.25;4.93;;;4.00;99.90;;;;;;5050773;28;20047;-72
2022/03/19 02:33:30;;;;;;;14.63;4.22;;;4.00;99.90;;;;;;5051510;28;20064;-70
2022/03/19 02:35:56;;;;;;;17.27;4.20;;;3.90;99.90;;;;;;5032800;28;20461;-72
2022/03/19 02:38:21;;;;;;;19.40;4.40;;;3.90;99.90;;;;;;5048844;28;20052;-72
2022/03/19 02:40:47;;;;;;;14.10;4.07;;;3.90;99.90;;;;;;5046201;28;20118;-70
2022/03/19 02:43:12;;;;;;;19.38;4.32;;;3.90;99.90;;;;;;5052800;28;20074;-71
2022/03/19 02:45:39;;;;;;;17.33;4.93;;;3.90;99.90;;;;;;5069057;28;20074;-71
2022/03/19 02:48:05;;;;;;;15.15;4.47;;;3.80;99.90;;;;;;5033916;28;20044;-72
2022/03/19 02:50:36;;;;;;;16.67;4.28;;;3.80;99.90;;;;;;5052287;28;20036;-71
2022/03/19 02:53:08;;;;;;;20.92;4.40;;;3.80;99.90;;;;;;5047826;28;20453;-71
2022/03/19 02:55:36;;;;;;;17.03;3.77;;;3.80;99.90;;;;;;5048358;28;20037;-71
2022/03/19 02:58:02;;;;;;;20.33;5.07;;;3.70;99.90;;;;;;5051280;28;20040;-72
2022/03/19 03:00:28;;;;;;;17.58;4.50;;;3.80;99.90;;;;;;5051761;28;20048;-72
2022/03/19 03:02:56;;;;;;;17.92;4.30;;;3.70;99.90;;;;;;5033611;28;20048;-72
2022/03/19 03:05:21;;;;;;;20.15;4.65;;;3.70;99.90;;;;;;5052099;28;20074;-72
2022/03/19 03:07:47;;;;;;;16.77;5.20;;;3.70;99.90;;;;;;5057812;28;20496;-71
2022/03/19 03:10:16;;;;;;;16.17;3.85;;;3.70;99.90;;;;;;5057226;28;20586;-71
2022/03/19 03:12:42;;;;;;;18.27;4.55;;;3.70;99.90;;;;;;5048768;28;20131;-72
2022/03/19 03:15:08;;;;;;;12.63;4.03;;;3.60;99.90;;;;;;5070967;28;21078;-72
2022/03/19 03:17:34;;;;;;;15.73;4.20;;;3.60;99.90;;;;;;5061236;28;20033;-72
2022/03/19 03:20:01;;;;;;;16.42;4.50;;;3.60;99.90;;;;;;5033144;28;20569;-71
2022/03/19 03:22:27;;;;;;;20.75;4.88;;;3.60;99.90;;;;;;5046828;28;20052;-72
2022/03/19 03:24:53;;;;;;;19.02;4.32;;;3.60;99.90;;;;;;5035686;28;20036;-71
2022/03/19 03:27:19;;;;;;;17.77;4.80;;;3.60;99.90;;;;;;5046963;28;20062;-71
2022/03/19 03:29:45;;;;;;;14.82;4.75;;;3.50;99.90;;;;;;5054836;28;20481;-70
2022/03/19 03:32:10;;;;;;;17.25;4.70;;;3.50;99.90;;;;;;5023578;28;20045;-70
2022/03/19 03:34:38;;;;;;;23.38;5.28;;;3.50;99.90;;;;;;5037933;28;20175;-72
2022/03/19 03:37:04;;;;;;;14.98;4.53;;;3.50;99.90;;;;;;5051342;28;20314;-71
2022/03/19 03:39:29;;;;;;;22.33;4.63;;;3.50;99.90;;;;;;5049712;28;20122;-72
2022/03/19 03:41:55;;;;;;;14.43;4.57;;;3.60;99.90;;;;;;5048232;28;20511;-72
2022/03/19 03:44:20;;;;;;;16.85;5.47;;;3.60;99.90;;;;;;5049582;28;20037;-70
2022/03/19 03:46:46;;;;;;;16.50;4.55;;;3.60;99.90;;;;;;5053473;28;20054;-72
2022/03/19 03:49:12;;;;;;;14.82;4.90;;;3.50;99.90;;;;;;5067051;28;20024;-72
2022/03/19 03:51:38;;;;;;;20.83;4.78;;;3.50;99.90;;;;;;5047320;28;20404;-72
2022/03/19 03:54:05;;;;;;;17.02;5.13;;;3.50;99.90;;;;;;5043793;28;20049;-72
2022/03/19 03:56:31;;;;;;;15.70;4.47;;;3.50;99.90;;;;;;5032531;28;20045;-72
2022/03/19 03:58:57;;;;;;;20.70;4.53;;;3.50;99.90;;;;;;5065511;28;20041;-72
2022/03/19 04:01:23;;;;;;;18.85;4.75;;;3.40;99.90;;;;;;5049748;28;20033;-72
2022/03/19 04:03:49;;;;;;;19.23;4.53;;;3.40;99.90;;;;;;5047402;28;20124;-71
2022/03/19 04:06:15;;;;;;;17.30;5.22;;;3.40;99.90;;;;;;5068980;28;20109;-71
2022/03/19 04:08:40;;;;;;;16.23;4.70;;;3.30;99.90;;;;;;5069430;28;20072;-70
2022/03/19 04:11:06;;;;;;;14.15;4.97;;;3.30;99.90;;;;;;5050684;28;20036;-72
2022/03/19 04:13:34;;;;;;;19.35;4.90;;;3.30;99.90;;;;;;5051006;28;20349;-72
2022/03/19 04:16:00;;;;;;;15.25;4.95;;;3.30;99.90;;;;;;5053912;28;20040;-72
2022/03/19 04:18:26;;;;;;;19.98;5.05;;;3.30;99.90;;;;;;5059989;28;20439;-72
2022/03/19 04:20:53;;;;;;;20.70;4.95;;;3.20;99.90;;;;;;5045932;28;20033;-72
2022/03/19 04:23:20;;;;;;;16.65;5.25;;;3.20;99.90;;;;;;5049627;28;20397;-71
2022/03/19 04:25:46;;;;;;;19.85;5.72;;;3.20;99.90;;;;;;5047522;28;20053;-70
2022/03/19 04:28:12;;;;;;;19.23;5.78;;;3.20;99.90;;;;;;5046945;28;20044;-71
2022/03/19 04:30:38;;;;;;;19.50;5.30;;;3.20;99.90;;;;;;5048165;28;20484;-71
2022/03/19 04:33:05;;;;;;;17.88;5.22;;;3.20;99.90;;;;;;5044789;28;20037;-72
2022/03/19 04:38:17;;;;;;;17.67;5.13;;;3.20;99.90;;;;;;5051557;28;20139;-73
2022/03/19 04:40:45;;;;;;;18.67;5.22;;;3.20;99.90;;;;;;5051621;28;20074;-72
2022/03/19 04:43:12;;;;;;;20.08;5.10;;;3.30;99.90;;;;;;5035201;28;20075;-71
2022/03/19 04:45:39;;;;;;;16.95;5.22;;;3.30;99.90;;;;;;5051296;28;20049;-73
2022/03/19 04:48:06;;;;;;;14.15;5.07;;;3.30;99.90;;;;;;5044061;28;20037;-70
2022/03/19 04:50:35;;;;;;;19.95;5.30;;;3.30;99.90;;;;;;5023288;28;20109;-71
2022/03/19 04:53:01;;;;;;;14.50;4.97;;;3.40;99.90;;;;;;5048774;28;20238;-72
2022/03/19 04:55:26;;;;;;;19.73;5.20;;;3.40;99.90;;;;;;5063044;28;20168;-71
2022/03/19 04:57:52;;;;;;;18.35;5.65;;;3.40;99.90;;;;;;5050264;28;20979;-70
2022/03/19 05:00:19;;;;;;;22.65;6.20;;;3.40;99.90;;;;;;5046775;28;20072;-72
2022/03/19 05:02:46;;;;;;;17.40;4.97;;;3.30;99.90;;;;;;5039345;28;20064;-70
2022/03/19 05:05:11;;;;;;;17.95;5.65;;;3.30;99.90;;;;;;5034212;28;20033;-72
2022/03/19 05:07:39;;;;;;;17.10;5.70;;;3.30;99.90;;;;;;5072721;28;20035;-72
2022/03/19 05:12:51;;;;;;;17.80;5.57;;;3.30;99.90;;;;;;5052507;28;20040;-70
2022/03/19 05:15:17;;;;;;;17.38;5.70;;;3.30;99.90;;;;;;5043361;28;20063;-73
2022/03/19 05:17:44;;;;;;;13.85;5.45;;;3.30;99.90;;;;;;5069214;28;20041;-72
2022/03/19 05:20:11;;;;;;;18.25;5.85;;;3.30;99.90;;;;;;5060341;28;20047;-70
2022/03/19 05:22:37;;;;;;;17.27;5.63;;;3.30;99.90;;;;;;5040083;28;20098;-71
2022/03/19 05:25:04;;;;;;;20.50;6.18;;;3.30;99.90;;;;;;5027633;28;20521;-72
2022/03/19 05:27:30;;;;;;;15.88;5.78;;;3.30;99.90;;;;;;5054305;28;20042;-70
2022/03/19 05:29:55;;;;;;;17.95;5.85;;;3.30;99.90;;;;;;5037730;28;20403;-72
2022/03/19 05:32:22;;;;;;;17.25;5.63;;;3.30;99.90;;;;;;5059009;28;20090;-72
2022/03/19 05:34:48;;;;;;;18.38;5.32;;;3.30;99.90;;;;;;5053238;28;20102;-72
2022/03/19 05:37:15;;;;;;;20.52;5.78;;;3.30;99.90;;;;;;5048308;28;20032;-72
2022/03/19 05:39:40;;;;;;;15.45;5.43;;;3.30;99.90;;;;;;5050953;28;20064;-72
2022/03/19 05:42:06;;;;;;;23.30;6.13;;;3.30;99.90;;;;;;5051549;28;20060;-71
2022/03/19 05:44:32;;;;;;;20.15;5.93;;;3.30;99.90;;;;;;5051015;28;20419;-71
2022/03/19 05:46:59;;;;;;;15.65;5.55;;;3.30;99.90;;;;;;5049796;28;20143;-71
2022/03/19 05:49:25;;;;;;;19.55;5.22;;;3.30;99.90;;;;;;5049998;28;20089;-72
2022/03/19 05:51:51;;;;;;;15.55;5.68;;;3.30;99.90;;;;;;5063980;28;20036;-71
2022/03/19 05:54:18;;;;;;;12.93;5.32;;;3.30;99.90;;;;;;5065604;28;20083;-71
2022/03/19 05:56:44;;;;;;;18.95;5.20;;;3.20;99.90;;;;;;5069424;28;20460;-70
2022/03/19 05:59:10;;;;;;;17.00;5.60;;;3.20;99.90;;;;;;5039660;28;20033;-72
2022/03/19 06:01:36;;;;;;;20.25;6.10;;;3.20;99.90;;;;;;5047985;28;20094;-72
2022/03/19 06:04:01;;;;;;;13.32;5.30;;;3.20;99.90;;;;;;5053568;28;20032;-71
2022/03/19 06:06:29;;;;;;;20.52;5.70;;;3.10;99.90;;;;;;5051710;28;20048;-70
2022/03/19 06:08:55;;;;;;;16.85;4.88;;;3.10;99.90;;;;;;5064377;28;20131;-71
2022/03/19 06:11:21;;;;;;;18.23;5.53;;;3.10;99.90;;;;;;5049549;28;20044;-71
2022/03/19 06:13:47;;;;;;;17.05;5.40;;;3.10;99.90;;;;;;5052456;28;20077;-71
2022/03/19 06:16:13;;;;;;;12.70;4.90;;;3.10;99.90;;;;;;5040235;28;20044;-72
2022/03/19 06:18:39;;;;;;;18.75;5.22;;;3.10;99.90;;;;;;5055096;28;20131;-69
2022/03/19 06:21:04;;;;;;;20.83;6.00;;;3.10;99.90;;;;;;5052673;28;20052;-71
2022/03/19 06:23:30;;;;;;;21.10;5.97;;;3.20;99.90;;;;;;5050107;28;20133;-71
2022/03/19 06:25:57;;;;;;;14.77;5.50;;;3.10;99.90;;;;;;5048222;28;20037;-71
2022/03/19 06:28:23;;;;;;;17.38;6.10;;;3.20;99.90;;;;;;5070197;28;20036;-69
2022/03/19 06:30:49;;;;;;;18.00;5.75;;;3.20;99.90;;;;;;5036590;28;20048;-70
2022/03/19 06:33:14;;;;;;;18.60;6.05;;;3.20;99.90;;;;;;5048911;28;20056;-72
2022/03/19 06:38:28;;;;;;;17.63;6.00;;;3.40;99.90;;;;;;5046112;28;20062;-72
2022/03/19 06:40:54;;;;;;;20.10;5.82;;;3.40;99.90;;;;;;5068538;28;20041;-72
2022/03/19 06:43:20;;;;;;;21.02;5.70;;;3.50;99.90;;;;;;5048400;28;20047;-71
2022/03/19 06:45:46;;;;;;;17.50;5.75;;;3.60;99.90;;;;;;5046837;28;20033;-72
2022/03/19 06:48:11;;;;;;;18.50;5.55;;;3.60;99.90;;;;;;5064662;28;20160;-72
2022/03/19 06:50:37;;;;;;;22.88;5.75;;;3.60;99.90;;;;;;5068883;28;20090;-71
2022/03/19 06:53:03;;;;;;;17.40;5.82;;;3.70;99.90;;;;;;5048411;28;20052;-72
2022/03/19 06:55:29;;;;;;;13.23;5.53;;;3.80;99.90;;;;;;5049031;28;20044;-71
2022/03/19 06:57:56;;;;;;;18.00;6.22;;;3.80;99.90;;;;;;5048256;28;20133;-71
2022/03/19 07:00:22;;;;;;;18.55;5.50;;;3.90;99.90;;;;;;5036887;28;20048;-72
2022/03/19 07:02:49;;;;;;;17.90;6.07;;;3.90;99.90;;;;;;5066041;28;20390;-72
2022/03/19 07:05:25;;;;;;;24.95;5.95;;;4.00;99.90;;;;;;5060687;28;20044;-72
2022/03/19 07:07:52;;;;;;;19.85;6.25;;;4.10;99.90;;;;;;5051662;28;20100;-71
2022/03/19 07:10:19;;;;;;;21.58;6.25;;;4.20;99.90;;;;;;5061741;28;20387;-73
2022/03/19 07:12:53;;;;;;;18.80;6.20;;;4.20;99.90;;;;;;5065753;28;20032;-72
2022/03/19 07:15:21;;;;;;;16.65;5.85;;;4.30;99.90;;;;;;5048202;28;20127;-72
2022/03/19 07:17:48;;;;;;;20.08;6.53;;;4.40;99.90;;;;;;5069451;28;20029;-72
2022/03/19 07:20:14;;;;;;;22.35;6.80;;;4.50;99.90;;;;;;5048332;28;20091;-72
2022/03/19 07:22:46;;;;;;;18.65;6.00;;;4.60;99.90;;;;;;5052290;28;20044;-72
2022/03/19 07:25:12;;;;;;;22.40;5.88;;;4.70;99.90;;;;;;5048414;28;20048;-71
2022/03/19 07:27:38;;;;;;;15.35;5.60;;;4.80;99.90;;;;;;5035094;28;20048;-72
2022/03/19 07:30:04;;;;;;;24.35;6.70;;;5.00;99.90;;;;;;5049400;28;20045;-72
2022/03/19 07:32:30;;;;;;;18.10;6.07;;;5.00;99.90;;;;;;5048294;28;20047;-70
2022/03/19 07:34:55;;;;;;;19.25;6.18;;;5.20;99.90;;;;;;5044988;28;20040;-72
2022/03/19 07:37:21;;;;;;;16.60;6.68;;;5.20;99.90;;;;;;5053514;28;20065;-72
2022/03/19 07:39:46;;;;;;;19.27;6.00;;;5.40;99.90;;;;;;5043579;28;20051;-71
2022/03/19 07:42:12;;;;;;;19.95;5.80;;;5.40;99.90;;;;;;5038162;28;20338;-71
2022/03/19 07:44:38;;;;;;;22.35;5.90;;;5.50;99.90;;;;;;5038851;28;20043;-70
2022/03/19 07:47:04;;;;;;;18.52;5.80;;;5.60;99.90;;;;;;5051006;28;20036;-70
2022/03/19 07:49:29;;;;;;;15.95;6.13;;;5.70;99.90;;;;;;5053902;28;20052;-71
2022/03/19 07:51:55;;;;;;;14.70;5.72;;;5.90;99.90;;;;;;5052473;28;20513;-71
2022/03/19 07:54:27;;;;;;;18.50;5.35;;;5.90;99.90;;;;;;5050278;28;20223;-72
2022/03/19 07:56:53;;;;;;;17.48;5.32;;;6.10;99.90;;;;;;5035128;28;20093;-72
2022/03/19 07:59:21;;;;;;;17.70;5.40;;;6.20;99.90;;;;;;5034293;28;22439;-71
2022/03/19 08:01:50;;;;;;;17.10;4.85;;;6.30;99.90;;;;;;5049284;28;20057;-71
2022/03/19 08:04:16;;;;;;;18.00;5.68;;;6.40;99.90;;;;;;5036716;28;20098;-72
2022/03/19 08:06:42;;;;;;;13.77;4.70;;;6.50;99.90;;;;;;5067910;28;20136;-72
2022/03/19 08:09:12;;;;;;;17.45;4.88;;;6.60;99.90;;;;;;5043110;28;20274;-70
2022/03/19 08:11:39;;;;;;;16.65;4.53;;;6.70;99.90;;;;;;5054358;28;20404;-71
2022/03/19 08:14:05;;;;;;;15.13;4.75;;;6.80;99.90;;;;;;5035495;28;20047;-72
2022/03/19 08:16:31;;;;;;;14.10;4.55;;;6.80;99.90;;;;;;5050718;28;20057;-70
2022/03/19 08:18:57;;;;;;;18.23;4.70;;;6.90;99.90;;;;;;5031794;28;20051;-70
2022/03/19 08:21:23;;;;;;;21.50;4.60;;;7.00;99.90;;;;;;5018735;28;20072;-72
2022/03/19 08:23:48;;;;;;;20.33;4.40;;;7.10;99.90;;;;;;5035505;28;20040;-72
2022/03/19 08:26:14;;;;;;;13.50;4.38;;;7.30;99.90;;;;;;5047240;28;20037;-72
2022/03/19 08:28:39;;;;;;;18.48;4.97;;;7.30;99.90;;;;;;5045705;28;20036;-72
2022/03/19 08:31:06;;;;;;;11.82;4.28;;;7.40;99.90;;;;;;5052217;28;20045;-72
2022/03/19 08:33:31;;;;;;;17.75;4.32;;;7.60;99.90;;;;;;5048992;28;20437;-72
2022/03/19 08:35:57;;;;;;;13.82;3.90;;;7.60;99.90;;;;;;5045694;28;20072;-72
2022/03/19 08:41:07;;;;;;;12.70;3.85;;;7.80;99.90;;;;;;5051011;28;20049;-72
2022/03/19 08:43:33;;;;;;;15.00;4.05;;;7.90;99.90;;;;;;5048980;28;20047;-72
2022/03/19 08:45:58;;;;;;;10.35;3.80;;;8.00;99.90;;;;;;5046432;28;20046;-72
2022/03/19 08:48:24;;;;;;;13.93;4.18;;;8.10;99.90;;;;;;5049183;28;20041;-72
2022/03/19 08:50:50;;;;;;;12.52;4.25;;;8.20;99.90;;;;;;5065990;28;20310;-72
2022/03/19 08:53:16;;;;;;;16.27;4.35;;;8.30;99.90;;;;;;5067911;28;20552;-72
2022/03/19 08:55:42;;;;;;;18.35;4.30;;;8.40;99.90;;;;;;5049780;28;20124;-72
2022/03/19 08:58:08;;;;;;;14.52;4.35;;;8.50;99.90;;;;;;5052090;28;20097;-70
2022/03/19 09:00:34;;;;;;;17.30;4.97;;;8.50;99.90;;;;;;5038750;28;20041;-72
2022/03/19 09:03:00;;;;;;;16.25;4.43;;;8.70;99.90;;;;;;5073191;28;20044;-72
2022/03/19 09:05:27;;;;;;;14.20;4.25;;;8.80;99.90;;;;;;5057291;28;20366;-73
2022/03/19 09:07:53;;;;;;;19.27;4.07;;;8.90;99.90;;;;;;5073971;28;20354;-73
2022/03/19 09:10:19;;;;;;;13.85;3.85;;;9.00;99.90;;;;;;5039915;28;20028;-73
2022/03/19 09:12:46;;;;;;;13.68;3.72;;;9.10;99.90;;;;;;5055351;28;20409;-73
2022/03/19 09:15:12;;;;;;;14.60;3.88;;;9.30;99.90;;;;;;5054840;28;20110;-73
2022/03/19 09:17:39;;;;;;;13.45;3.63;;;9.40;99.90;;;;;;5068273;28;20131;-73
2022/03/19 09:20:06;;;;;;;13.98;3.67;;;9.40;99.90;;;;;;5058658;28;20040;-73
2022/03/19 09:22:31;;;;;;;13.13;3.58;;;9.60;99.90;;;;;;5073170;28;20079;-73
2022/03/19 09:24:57;;;;;;;12.80;3.50;;;9.60;99.90;;;;;;5056186;28;20079;-72
2022/03/19 09:27:23;;;;;;;13.85;3.85;;;9.70;99.90;;;;;;5058130;28;20618;-73
2022/03/19 09:29:49;;;;;;;12.27;3.80;;;9.80;98.90;;;;;;5058268;28;20083;-73
2022/03/19 09:32:17;;;;;;;11.57;3.55;;;9.90;98.90;;;;;;5055084;28;20043;-73
2022/03/19 09:34:47;;;;;;;16.38;3.75;;;10.10;97.70;;;;;;5036850;28;20067;-71
2022/03/19 09:37:15;;;;;;;13.40;3.55;;;10.10;98.10;;;;;;5040321;28;20063;-71
2022/03/19 09:39:41;;;;;;;12.65;3.60;;;10.20;97.00;;;;;;5054664;28;20120;-71
2022/03/19 09:42:10;;;;;;;12.45;3.17;;;10.30;96.40;;;;;;5057186;28;20071;-72
2022/03/19 09:44:36;;;;;;;10.15;3.20;;;10.40;96.60;;;;;;5058542;28;20047;-73
2022/03/19 09:47:03;;;;;;;12.63;3.45;;;10.50;95.80;;;;;;5041868;28;20577;-71
2022/03/19 09:49:28;;;;;;;16.15;3.88;;;10.60;91.50;;;;;;5054626;28;20043;-73
2022/03/19 09:51:55;;;;;;;11.40;3.25;;;10.60;90.40;;;;;;5045071;28;20044;-71
2022/03/19 09:54:23;;;;;;;13.73;4.03;;;10.70;87.20;;;;;;5042456;28;20415;-71
2022/03/19 09:56:50;;;;;;;12.63;3.15;;;10.80;82.50;;;;;;5045956;28;20093;-71
2022/03/19 09:59:15;;;;;;;11.35;2.63;;;10.90;82.20;;;;;;5059014;28;20037;-71
2022/03/19 10:01:41;;;;;;;10.27;3.05;;;11.00;81.50;;;;;;5058994;28;20114;-72
2022/03/19 10:04:08;;;;;;;12.15;2.55;;;11.00;80.90;;;;;;5075455;28;20473;-72
2022/03/19 10:09:21;;;;;;;11.48;2.83;;;11.20;78.10;;;;;;5072170;28;20131;-71
2022/03/19 10:11:51;;;;;;;14.50;3.22;;;11.30;75.30;;;;;;5053171;28;20071;-71
2022/03/19 10:14:23;;;;;;;11.73;3.40;;;11.40;76.90;;;;;;5044276;28;20040;-71
2022/03/19 10:16:51;;;;;;;13.98;3.20;;;11.50;77.80;;;;;;5041653;28;20036;-71
2022/03/19 10:19:17;;;;;;;17.50;3.85;;;11.60;81.30;;;;;;5058268;28;20093;-71
2022/03/19 10:21:44;;;;;;;9.32;3.00;;;11.70;83.80;;;;;;5052597;28;20124;-73
2022/03/19 10:24:28;;;;;;;15.35;3.20;;;11.80;78.40;;;;;;5070376;28;20051;-71
2022/03/19 10:26:54;;;;;;;11.50;2.95;;;11.90;78.10;;;;;;5021997;28;20039;-71
2022/03/19 10:29:33;;;;;;;11.10;2.92;;;11.90;78.80;;;;;;5034035;28;20036;-71
2022/03/19 10:32:08;;;;;;;9.73;2.70;;;12.20;75.10;;;;;;5058580;28;20157;-71
2022/03/19 10:34:35;;;;;;;12.18;3.42;;;12.20;71.00;;;;;;5055799;28;20039;-73
2022/03/19 10:37:01;;;;;;;11.25;2.97;;;12.30;70.40;;;;;;5058747;28;20119;-72
2022/03/19 10:39:29;;;;;;;12.52;2.90;;;12.40;70.80;;;;;;5021552;28;20123;-71
2022/03/19 10:41:56;;;;;;;8.60;2.35;;;12.50;70.00;;;;;;5072961;28;20222;-71
2022/03/19 10:44:26;;;;;;;10.77;2.58;;;12.60;68.20;;;;;;5042232;28;20037;-72
2022/03/19 10:47:00;;;;;;;11.02;2.92;;;12.80;66.90;;;;;;5041510;28;20131;-71
2022/03/19 10:49:28;;;;;;;10.85;2.70;;;13.00;65.20;;;;;;5069553;28;20038;-72
2022/03/19 10:51:57;;;;;;;12.18;2.85;;;13.20;63.30;;;;;;5025498;28;20493;-72
2022/03/19 10:54:24;;;;;;;9.57;2.75;;;13.20;64.00;;;;;;5043662;28;20067;-71
2022/03/19 10:56:51;;;;;;;10.60;2.90;;;13.30;62.00;;;;;;5021256;28;20091;-72
2022/03/19 10:59:18;;;;;;;7.40;2.60;;;13.40;62.20;;;;;;5076120;28;20119;-71
2022/03/19 11:01:47;;;;;;;6.72;2.20;;;13.50;59.90;;;;;;5057999;28;20040;-71
2022/03/19 11:04:14;;;;;;;9.50;2.60;;;13.70;60.10;;;;;;5058283;28;20044;-71
2022/03/19 11:06:43;;;;;;;10.55;2.63;;;13.80;56.70;;;;;;5067462;28;20115;-71
2022/03/19 11:09:13;;;;;;;5.53;1.90;;;13.90;55.90;;;;;;5074788;28;20036;-71
2022/03/19 11:11:44;;;;;;;11.05;2.63;;;14.10;56.10;;;;;;5067426;28;20033;-73
2022/03/19 11:14:17;;;;;;;7.32;2.58;;;14.30;57.40;;;;;;5041678;28;20090;-71
2022/03/19 11:17:23;;;;;;;7.55;2.53;;;14.40;56.60;;;;;;5074710;28;20060;-72
2022/03/19 11:19:36;;;;;;;4.13;1.90;;;14.70;56.40;;;;;;5072563;28;20041;-73
2022/03/19 11:22:02;;;;;;;9.57;2.17;;;14.80;51.80;;;;;;5046889;28;20295;-71
2022/03/19 11:24:32;;;;;;;7.28;2.03;;;14.90;52.20;;;;;;5040492;28;20037;-71
2022/03/19 11:26:59;;;;;;;6.47;2.25;;;15.00;50.60;;;;;;5057699;28;20041;-71
2022/03/19 11:29:27;;;;;;;6.13;2.03;;;15.00;52.50;;;;;;5078480;28;20029;-72
2022/03/19 11:31:58;;;;;;;11.07;2.05;;;15.20;49.00;;;;;;5043530;28;20119;-72
2022/03/19 11:34:24;;;;;;;7.38;1.58;;;15.30;46.20;;;;;;5023953;28;20032;-71
2022/03/19 11:36:58;;;;;;;4.72;1.83;;;15.40;47.30;;;;;;5039946;28;20047;-72
2022/03/19 11:39:25;;;;;;;5.32;2.00;;;15.40;46.50;;;;;;5061038;28;20400;-72
2022/03/19 11:41:51;;;;;;;6.72;1.92;;;15.50;45.50;;;;;;5057222;28;20037;-71
2022/03/19 11:44:27;;;;;;;5.43;1.67;;;15.60;46.30;;;;;;5076896;28;20032;-71
2022/03/19 11:47:02;;;;;;;6.30;2.15;;;15.70;45.80;;;;;;5056560;28;20039;-72
2022/03/19 11:49:54;;;;;;;5.72;2.05;;;15.80;47.70;;;;;;5066922;28;20412;-72
2022/03/19 11:52:26;;;;;;;5.00;1.80;;;15.80;45.40;;;;;;5040779;28;20254;-72
2022/03/19 11:55:04;;;;;;;9.40;1.92;;;16.00;46.10;;;;;;5078416;28;20159;-71
2022/03/19 11:57:58;;;;;;;6.82;2.03;;;16.20;45.00;;;;;;5050681;28;20041;-71
2022/03/19 12:00:29;;;;;;;3.60;1.60;;;16.20;45.00;;;;;;5075636;28;20036;-71
2022/03/19 12:03:19;;;;;;;6.07;1.52;;;16.30;44.10;;;;;;5075315;28;20032;-71
2022/03/19 12:05:46;;;;;;;5.82;1.48;;;16.30;43.80;;;;;;5035414;28;20044;-71
2022/03/19 12:08:23;;;;;;;5.65;1.63;;;16.40;44.50;;;;;;5074246;28;20033;-71
2022/03/19 12:10:57;;;;;;;9.27;1.85;;;16.50;43.00;;;;;;5076056;28;20088;-71
2022/03/19 12:13:26;;;;;;;4.38;1.52;;;16.60;43.10;;;;;;5041838;28;20037;-73
2022/03/19 12:15:54;;;;;;;7.40;1.63;;;16.60;43.50;;;;;;5034270;28;20043;-74
2022/03/19 12:18:24;;;;;;;4.45;1.58;;;16.60;41.10;;;;;;5043529;28;20044;-71
2022/03/19 12:20:58;;;;;;;3.88;1.50;;;16.70;41.90;;;;;;5057851;28;20047;-73
2022/03/19 12:23:26;;;;;;;3.83;1.52;;;16.70;42.40;;;;;;5051206;28;20041;-74
2022/03/19 12:26:04;;;;;;;4.28;1.52;;;16.80;40.20;;;;;;5031744;28;20033;-71
2022/03/19 12:28:31;;;;;;;4.18;1.45;;;16.90;40.90;;;;;;5055887;28;20040;-73
2022/03/19 12:31:27;;;;;;;3.42;1.48;;;17.00;42.30;;;;;;5053561;28;20039;-72
2022/03/19 12:33:53;;;;;;;4.22;1.60;;;17.00;41.80;;;;;;5068877;28;20149;-73
2022/03/19 12:36:21;;;;;;;3.95;1.58;;;17.00;41.70;;;;;;5059326;28;20504;-72
2022/03/19 12:38:50;;;;;;;3.70;1.40;;;17.00;40.20;;;;;;5062278;28;20045;-74
2022/03/19 12:41:26;;;;;;;6.50;1.60;;;17.10;42.30;;;;;;5067968;28;20082;-75
2022/03/19 12:43:53;;;;;;;5.78;1.73;;;17.00;40.80;;;;;;5056083;28;20052;-75
2022/03/19 12:46:26;;;;;;;5.07;1.67;;;17.00;42.80;;;;;;5074212;28;20437;-73
2022/03/19 12:49:11;;;;;;;3.83;1.63;;;17.00;41.80;;;;;;5059605;28;20169;-72
2022/03/19 12:51:42;;;;;;;5.90;1.80;;;16.90;43.90;;;;;;5019980;28;20068;-72
2022/03/19 12:54:27;;;;;;;5.50;2.00;;;16.90;43.60;;;;;;5040834;28;20055;-72
2022/03/19 12:56:54;;;;;;;7.03;1.80;;;16.80;42.60;;;;;;5068850;28;20036;-72
2022/03/19 12:59:28;;;;;;;8.07;1.92;;;16.80;42.90;;;;;;5058117;28;20037;-72
2022/03/19 13:01:55;;;;;;;4.35;1.73;;;16.70;44.60;;;;;;5057992;28;20040;-72
2022/03/19 13:04:23;;;;;;;4.03;1.60;;;16.80;42.40;;;;;;5078225;28;20044;-74